createdAt,value
2023-02-08T00:02:16.534Z,101241.13
2023-02-08T00:06:23.599Z,101224.03
2023-02-08T00:10:35.076Z,101220.44
2023-02-08T00:14:40.058Z,101226.03
2023-02-08T00:18:44.026Z,101225.75
2023-02-08T00:22:52.532Z,101224.00
2023-02-08T00:26:58.436Z,101226.06
2023-02-08T00:31:04.340Z,101225.13
2023-02-08T00:35:11.512Z,101232.22
2023-02-08T00:39:15.709Z,101242.44
2023-02-08T00:43:21.261Z,101229.75
2023-02-08T00:47:27.930Z,101234.81
2023-02-08T00:51:35.239Z,101235.84
2023-02-08T00:55:43.972Z,101235.72
2023-02-08T00:59:48.700Z,101228.69
2023-02-08T01:03:52.740Z,101231.09
2023-02-08T01:07:58.609Z,101227.00
2023-02-08T01:12:03.013Z,101239.47
2023-02-08T01:16:17.057Z,101225.94
2023-02-08T01:20:26.206Z,101220.25
2023-02-08T01:24:32.396Z,101208.56
2023-02-08T01:28:36.906Z,101212.19
2023-02-08T01:32:42.528Z,101225.53
2023-02-08T01:36:46.560Z,101223.25
2023-02-08T01:40:53.546Z,101222.84
2023-02-08T01:45:30.435Z,101215.41
2023-02-08T01:49:37.096Z,101209.31
2023-02-08T01:53:42.257Z,101212.72
2023-02-08T01:57:52.651Z,101217.78
2023-02-08T02:06:23.557Z,101204.69
2023-02-08T02:10:35.884Z,101202.19
2023-02-08T02:14:40.884Z,101173.53
2023-02-08T02:18:44.158Z,101206.13
2023-02-08T02:23:32.434Z,101191.91
2023-02-08T02:28:17.754Z,101186.59
2023-02-08T02:32:38.796Z,101201.91
2023-02-08T02:36:51.507Z,101200.97
2023-02-08T02:41:07.943Z,101198.09
2023-02-08T02:45:18.079Z,101190.47
2023-02-08T02:49:27.543Z,101186.09
2023-02-08T02:53:45.317Z,101191.28
2023-02-08T02:57:50.432Z,101182.78
2023-02-08T03:01:57.552Z,101178.25
2023-02-08T03:06:05.982Z,101195.81
2023-02-08T03:10:29.256Z,101189.22
2023-02-08T03:14:38.790Z,101182.69
2023-02-08T03:18:52.328Z,101170.31
2023-02-08T03:23:03.429Z,101169.16
2023-02-08T03:27:10.200Z,101171.16
2023-02-08T03:31:20.693Z,101169.63
2023-02-08T03:35:28.159Z,101154.81
2023-02-08T03:39:38.065Z,101167.84
2023-02-08T03:43:57.946Z,101172.47
2023-02-08T03:48:04.008Z,101172.56
2023-02-08T03:52:10.628Z,101169.44
2023-02-08T03:56:18.179Z,101170.50
2023-02-08T04:00:23.129Z,101162.69
2023-02-08T04:04:34.589Z,101166.06
2023-02-08T04:08:39.481Z,101166.97
2023-02-08T04:12:48.105Z,101166.53
2023-02-08T04:16:55.132Z,101162.84
2023-02-08T04:21:02.388Z,101172.47
2023-02-08T04:25:10.098Z,101145.50
2023-02-08T04:29:16.064Z,101165.75
2023-02-08T04:33:25.402Z,101152.34
2023-02-08T04:37:30.235Z,101141.97
2023-02-08T04:41:34.946Z,101150.06
2023-02-08T04:45:43.490Z,101138.78
2023-02-08T04:49:50.695Z,101144.25
2023-02-08T04:54:04.323Z,101137.47
2023-02-08T04:58:09.245Z,101140.00
2023-02-08T05:02:17.876Z,101137.56
2023-02-08T05:06:22.302Z,101128.56
2023-02-08T05:10:26.284Z,101124.59
2023-02-08T05:14:32.366Z,101130.16
2023-02-08T05:19:00.866Z,101128.28
2023-02-08T05:23:13.728Z,101140.94
2023-02-08T05:27:18.150Z,101132.53
2023-02-08T05:31:27.194Z,101132.09
2023-02-08T05:35:43.534Z,101133.41
2023-02-08T05:39:48.332Z,101138.88
2023-02-08T05:43:55.245Z,101145.31
2023-02-08T05:48:01.885Z,101139.94
2023-02-08T05:52:08.571Z,101124.69
2023-02-08T05:56:13.034Z,101139.53
2023-02-08T06:00:19.237Z,101142.81
2023-02-08T06:04:32.189Z,101127.44
2023-02-08T06:08:37.110Z,101135.25
2023-02-08T06:12:40.628Z,101139.41
2023-02-08T06:16:49.140Z,101153.44
2023-02-08T06:20:55.391Z,101153.03
2023-02-08T06:25:00.538Z,101139.94
2023-02-08T06:29:04.153Z,101158.50
2023-02-08T06:33:07.509Z,101150.47
2023-02-08T06:37:10.633Z,101158.41
2023-02-08T06:41:18.579Z,101159.31
2023-02-08T06:45:27.433Z,101150.78
2023-02-08T06:49:31.236Z,101157.59
2023-02-08T06:53:34.849Z,101156.25
2023-02-08T06:57:43.031Z,101167.13
2023-02-08T07:01:54.959Z,101172.06
2023-02-08T07:06:05.031Z,101165.25
2023-02-08T07:10:09.247Z,101167.19
2023-02-08T07:14:18.818Z,101165.38
2023-02-08T07:18:22.548Z,101162.56
2023-02-08T07:22:25.914Z,101167.09
2023-02-08T07:26:29.520Z,101149.81
2023-02-08T07:30:34.004Z,101159.41
2023-02-08T07:34:40.822Z,101168.97
2023-02-08T07:38:45.222Z,101160.44
2023-02-08T07:42:52.081Z,101162.63
2023-02-08T07:46:56.947Z,101159.84
2023-02-08T07:51:00.354Z,101163.31
2023-02-08T07:55:03.794Z,101155.31
2023-02-08T07:59:10.320Z,101158.03
2023-02-08T08:03:15.855Z,101150.50
2023-02-08T08:07:22.486Z,101162.28
2023-02-08T08:11:28.196Z,101149.91
2023-02-08T08:15:34.295Z,101152.22
2023-02-08T08:19:39.361Z,101138.53
2023-02-08T08:23:44.349Z,101143.03
2023-02-08T08:27:47.004Z,101145.13
2023-02-08T08:31:49.727Z,101149.84
2023-02-08T08:36:00.560Z,101138.38
2023-02-08T08:40:08.794Z,101138.69
2023-02-08T08:44:15.055Z,101140.47
2023-02-08T08:48:20.173Z,101144.22
2023-02-08T08:52:25.645Z,101135.19
2023-02-08T08:56:29.763Z,101125.81
2023-02-08T09:00:34.439Z,101138.06
2023-02-08T09:04:40.464Z,101130.19
2023-02-08T09:08:47.323Z,101118.44
2023-02-08T09:12:50.073Z,101124.94
2023-02-08T09:16:53.522Z,101110.66
2023-02-08T09:20:57.527Z,101111.31
2023-02-08T09:25:05.339Z,101121.94
2023-02-08T09:29:14.780Z,101129.97
2023-02-08T09:33:20.331Z,101120.34
2023-02-08T09:37:23.067Z,101116.84
2023-02-08T09:41:37.785Z,101116.50
2023-02-08T09:45:59.844Z,101117.47
2023-02-08T09:50:06.250Z,101102.56
2023-02-08T09:54:14.470Z,101116.63
2023-02-08T09:58:27.185Z,101115.97
2023-02-08T10:02:32.013Z,101106.56
2023-02-08T10:06:34.940Z,101087.47
2023-02-08T10:10:44.382Z,101077.28
2023-02-08T10:15:03.689Z,101094.38
2023-02-08T10:19:13.325Z,101087.06
2023-02-08T10:23:33.062Z,101088.75
2023-02-08T10:27:45.554Z,101093.94
2023-02-08T10:32:14.142Z,101088.31
2023-02-08T10:36:22.855Z,101089.56
2023-02-08T10:40:51.836Z,101084.41
2023-02-08T10:45:22.518Z,101078.34
2023-02-08T10:49:40.714Z,101077.31
2023-02-08T10:53:48.647Z,101078.31
2023-02-08T10:57:54.688Z,101077.44
2023-02-08T11:02:02.834Z,101069.88
2023-02-08T11:06:37.880Z,101071.84
2023-02-08T11:10:44.057Z,101074.91
2023-02-08T11:14:53.475Z,101075.66
2023-02-08T11:19:01.717Z,101075.09
2023-02-08T11:23:07.312Z,101065.78
2023-02-08T11:27:38.102Z,101060.56
2023-02-08T11:31:42.506Z,101049.81
2023-02-08T11:36:04.835Z,101049.63
2023-02-08T11:44:54.956Z,101040.09
2023-02-08T11:48:59.664Z,101047.03
2023-02-08T11:53:07.757Z,101030.66
2023-02-08T11:57:21.780Z,101034.59
2023-02-08T12:01:31.971Z,101034.75
2023-02-08T12:05:41.742Z,101029.50
2023-02-08T12:10:21.822Z,101039.19
2023-02-08T12:14:39.955Z,101034.13
2023-02-08T12:18:59.075Z,101015.25
2023-02-08T12:23:39.647Z,101016.72
2023-02-08T12:27:48.130Z,101007.66
2023-02-08T12:32:07.434Z,101008.97
2023-02-08T12:36:35.244Z,101009.50
2023-02-08T12:40:51.305Z,101006.81
2023-02-08T12:45:06.479Z,100984.94
2023-02-08T12:49:33.790Z,100999.13
2023-02-08T12:53:40.231Z,100979.38
2023-02-08T12:57:44.731Z,100981.66
2023-02-08T13:01:53.609Z,100963.88
2023-02-08T13:06:07.606Z,100969.19
2023-02-08T13:10:17.706Z,100963.25
2023-02-08T13:14:35.288Z,100960.41
2023-02-08T13:18:50.798Z,100957.66
2023-02-08T13:22:58.774Z,100962.25
2023-02-08T13:27:03.744Z,100947.69
2023-02-08T13:31:19.349Z,100949.63
2023-02-08T13:35:31.010Z,100940.34
2023-02-08T13:39:49.768Z,100932.06
2023-02-08T13:43:55.955Z,100925.63
2023-02-08T13:48:02.108Z,100917.91
2023-02-08T13:52:10.861Z,100929.53
2023-02-08T13:56:40.225Z,100924.91
2023-02-08T14:01:05.146Z,100920.66
2023-02-08T14:05:40.133Z,100915.19
2023-02-08T14:09:56.850Z,100905.97
2023-02-08T14:14:03.996Z,100901.88
2023-02-08T14:18:26.211Z,100906.41
2023-02-08T14:22:34.695Z,100903.19
2023-02-08T14:26:39.308Z,100883.75
2023-02-08T14:30:48.472Z,100893.88
2023-02-08T14:35:03.075Z,100903.13
2023-02-08T14:39:26.403Z,100901.53
2023-02-08T14:43:33.603Z,100885.88
2023-02-08T14:47:57.704Z,100891.16
2023-02-08T14:52:06.273Z,100873.44
2023-02-08T14:56:20.128Z,100882.09
2023-02-08T15:00:25.684Z,100861.88
2023-02-08T15:04:31.044Z,100878.03
2023-02-08T15:08:34.782Z,100864.69
2023-02-08T15:12:40.854Z,100885.59
2023-02-08T15:16:44.815Z,100894.63
2023-02-08T15:20:59.814Z,100872.75
2023-02-08T15:25:22.059Z,100873.22
2023-02-08T15:29:39.173Z,100849.50
2023-02-08T15:33:48.830Z,100872.72
2023-02-08T15:37:57.712Z,100858.34
2023-02-08T15:42:01.760Z,100858.81
2023-02-08T15:46:07.474Z,100847.88
2023-02-08T15:50:18.715Z,100811.78
2023-02-08T15:54:23.637Z,100852.84
2023-02-08T15:58:30.863Z,100853.50
2023-02-08T16:02:36.020Z,100829.41
2023-02-08T16:06:49.017Z,100848.28
2023-02-08T16:10:57.494Z,100850.66
2023-02-08T16:15:03.467Z,100857.81
2023-02-08T16:19:09.097Z,100856.31
2023-02-08T16:23:25.168Z,100850.44
2023-02-08T16:27:35.230Z,100851.41
2023-02-08T16:31:40.398Z,100863.25
2023-02-08T16:36:06.257Z,100852.22
2023-02-08T16:40:50.291Z,100867.13
2023-02-08T16:45:20.849Z,100868.53
2023-02-08T16:49:48.471Z,100869.59
2023-02-08T16:54:03.251Z,100868.69
2023-02-08T16:58:35.463Z,100875.66
2023-02-08T17:02:40.587Z,100853.25
2023-02-08T17:06:45.967Z,100871.31
2023-02-08T17:10:59.190Z,100883.53
2023-02-08T17:15:05.967Z,100883.16
2023-02-08T17:19:18.841Z,100880.94
2023-02-08T17:23:41.172Z,100888.72
2023-02-08T17:27:48.839Z,100889.94
2023-02-08T17:31:59.687Z,100887.97
2023-02-08T17:36:14.466Z,100894.03
2023-02-08T17:40:21.009Z,100906.50
2023-02-08T17:44:32.625Z,100897.38
2023-02-08T17:48:39.113Z,100903.78
2023-02-08T17:52:44.492Z,100889.59
2023-02-08T17:56:57.055Z,100895.47
2023-02-08T18:01:00.864Z,100894.47
2023-02-08T18:05:11.494Z,100890.38
2023-02-08T18:09:18.110Z,100895.81
2023-02-08T18:13:25.247Z,100890.13
2023-02-08T18:17:30.659Z,100898.59
2023-02-08T18:21:38.050Z,100897.72
2023-02-08T18:25:45.070Z,100905.44
2023-02-08T18:29:51.874Z,100898.63
2023-02-08T18:34:04.970Z,100903.22
2023-02-08T18:38:08.826Z,100893.63
2023-02-08T18:42:15.266Z,100901.97
2023-02-08T18:46:29.925Z,100904.25
2023-02-08T18:50:40.469Z,100898.00
2023-02-08T18:54:46.046Z,100896.13
2023-02-08T18:58:59.324Z,100890.31
2023-02-08T19:03:04.107Z,100901.97
2023-02-08T19:07:08.244Z,100869.16
2023-02-08T19:11:21.977Z,100909.28
2023-02-08T19:19:48.573Z,100893.84
2023-02-08T19:24:01.253Z,100895.44
2023-02-08T19:28:05.950Z,100893.94
2023-02-08T19:32:15.415Z,100879.34
2023-02-08T19:36:27.239Z,100888.72
2023-02-08T19:40:32.100Z,100882.75
2023-02-08T19:44:35.290Z,100891.91
2023-02-08T19:48:40.672Z,100892.34
2023-02-08T19:52:46.570Z,100883.03
2023-02-08T19:56:54.815Z,100884.28
2023-02-08T20:01:00.326Z,100893.34
2023-02-08T20:05:06.746Z,100881.59
2023-02-08T20:09:16.961Z,100881.78
2023-02-08T20:13:23.322Z,100867.56
2023-02-08T20:17:30.703Z,100861.59
2023-02-08T20:21:39.879Z,100867.72
2023-02-08T20:25:49.717Z,100862.16
2023-02-08T20:29:58.168Z,100862.63
2023-02-08T20:34:04.068Z,100879.09
2023-02-08T20:38:10.822Z,100871.38
2023-02-08T20:42:15.892Z,100869.69
2023-02-08T20:46:28.715Z,100865.47
2023-02-08T20:50:37.382Z,100863.81
2023-02-08T20:54:53.071Z,100875.81
2023-02-08T20:59:11.260Z,100870.06
2023-02-08T21:03:21.168Z,100862.03
2023-02-08T21:07:30.363Z,100868.59
2023-02-08T21:11:48.992Z,100865.31
2023-02-08T21:15:52.655Z,100852.66
2023-02-08T21:19:59.704Z,100863.44
2023-02-08T21:24:09.023Z,100855.19
2023-02-08T21:28:21.398Z,100838.97
2023-02-08T21:32:25.356Z,100836.09
2023-02-08T21:36:30.190Z,100832.94
2023-02-08T21:40:34.097Z,100829.38
2023-02-08T21:44:39.766Z,100821.63
2023-02-08T21:49:00.764Z,100814.47
2023-02-08T21:53:21.875Z,100809.06
2023-02-08T21:57:29.700Z,100823.50
2023-02-08T22:01:35.334Z,100827.59
2023-02-08T22:05:39.553Z,100824.72
2023-02-08T22:09:43.872Z,100819.16
2023-02-08T22:13:48.071Z,100804.44
2023-02-08T22:17:56.584Z,100819.06
2023-02-08T22:22:00.673Z,100801.13
2023-02-08T22:26:09.218Z,100804.06
2023-02-08T22:30:28.795Z,100810.47
2023-02-08T22:34:34.346Z,100782.31
2023-02-08T22:38:41.137Z,100793.44
2023-02-08T22:42:53.536Z,100786.41
2023-02-08T22:46:57.893Z,100787.34
2023-02-08T22:51:07.524Z,100796.66
2023-02-08T22:55:12.826Z,100773.94
2023-02-08T22:59:16.577Z,100786.84
2023-02-08T23:03:23.261Z,100782.28
2023-02-08T23:07:29.128Z,100790.31
2023-02-08T23:11:32.847Z,100788.94
2023-02-08T23:15:39.343Z,100776.19
2023-02-08T23:19:44.188Z,100786.06
2023-02-08T23:23:50.582Z,100785.94
2023-02-08T23:27:57.781Z,100760.31
2023-02-08T23:32:03.170Z,100774.50
2023-02-08T23:36:08.119Z,100778.56
2023-02-08T23:40:18.091Z,100775.81
2023-02-08T23:44:24.074Z,100790.88
2023-02-08T23:48:30.357Z,100783.97
2023-02-08T23:52:41.088Z,100788.16
2023-02-08T23:56:46.546Z,100790.38
